Airfield :
LOGIN :

Register | Disclaimer

   EN    FR    IT 

 










Legend :    VFR   Marginal VFR   IFR   Intensive IFR   Very Intensive IFR
Visi :
Ceiling :
>= 8 km
>= 3000ft
5 to 8 km
1000 to 3000 ft
1500m to 5 km
500 to 1000 ft
800 to 1500m
200 to 500 ft
< 800m
< 200 ft
Symbols :   Thunderstorms  Fog  Heavy snow  Heavy precipitations  Wind > 20 kt
SIGMETs :     Misc.  Thunderstorms  Icing  Turbulence  Mountain Waves  Volcanic Ashes






- Airport Elevation : 2595 ft
- IATA code : SLM


LESA - Salamanca Matacan

CURRENT METAR :
  • 101900Z AUTO 22006KT 190V260 9999 BKN044 10/08 Q1011

EXPIRED METARs :
  • 101830Z AUTO 24006KT CAVOK 10/08 Q1011
  • 101800Z 24006KT 210V270 9999 FEW048 10/08 Q1011
  • 101730Z 28010KT 9999 -RA FEW040 09/08 Q1011
  • 101700Z 26018KT 7000 -SHRA FEW030CB SCT040 10/07 Q1011
  • 101630Z 26021G34KT 230V290 9999 -SHRA FEW030CB BKN040 11/06 Q1011

TAF TAF LESA
Valid from the 10 at 15:00 until the 11 at 15:00 UTC


101400Z 1015/1115 23010KT 9999 SCT030 TX20/1016Z TN08/1106Z
TEMPO 1015/1115 3000 SHRA BKN012 SCT025TCU
PROB40
TEMPO 1015/1020 VRB15G25KT 2000 TSRA SCT025CB
BECMG 1106/1108 VRB05KT
BECMG 1113/1115 04010KT



MET'MAP, your aeronautical weather chart ! - Copyright ORBIFLY December 2007 - Disclaimer

ORBIFLY MET'MAP TEAM :

Programming & Development : Alexandra Zaïnal
Concept & original design : Baudouin d'Aumeries
Assistance for programming : Marc-Olivier Méhu
Technical & hardware support : Manuel Goepfert

Contact : metmap@orbifly.com




SOURCES & CREDITS :

   NOAA